sensor_id;sensor_type;location;lat;lon;timestamp;P1;durP1;ratioP1;P2;durP2;ratioP2
12332;SDS011;6232;48.094;11.288;2022-10-29T00:01:13;6.07;;;4.57;;
12332;SDS011;6232;48.094;11.288;2022-10-29T00:03:58;8.43;;;3.27;;
12332;SDS011;6232;48.094;11.288;2022-10-29T00:06:44;13.20;;;4.27;;
12332;SDS011;6232;48.094;11.288;2022-10-29T00:09:31;13.03;;;3.97;;
12332;SDS011;6232;48.094;11.288;2022-10-29T00:12:17;8.00;;;3.57;;
12332;SDS011;6232;48.094;11.288;2022-10-29T00:15:02;8.07;;;3.83;;
12332;SDS011;6232;48.094;11.288;2022-10-29T00:17:48;6.90;;;3.57;;
12332;SDS011;6232;48.094;11.288;2022-10-29T00:20:34;8.50;;;4.53;;
12332;SDS011;6232;48.094;11.288;2022-10-29T00:23:19;7.77;;;4.17;;
12332;SDS011;6232;48.094;11.288;2022-10-29T00:26:05;9.20;;;3.50;;
12332;SDS011;6232;48.094;11.288;2022-10-29T00:28:51;7.50;;;4.03;;
12332;SDS011;6232;48.094;11.288;2022-10-29T00:31:37;12.13;;;3.67;;
12332;SDS011;6232;48.094;11.288;2022-10-29T00:34:23;9.53;;;2.90;;
12332;SDS011;6232;48.094;11.288;2022-10-29T00:37:08;9.27;;;3.10;;
12332;SDS011;6232;48.094;11.288;2022-10-29T00:39:54;9.43;;;3.70;;
12332;SDS011;6232;48.094;11.288;2022-10-29T00:42:39;9.90;;;3.37;;
12332;SDS011;6232;48.094;11.288;2022-10-29T00:45:25;5.57;;;2.80;;
12332;SDS011;6232;48.094;11.288;2022-10-29T00:48:10;19.23;;;4.17;;
12332;SDS011;6232;48.094;11.288;2022-10-29T00:50:56;6.17;;;3.20;;
12332;SDS011;6232;48.094;11.288;2022-10-29T00:53:47;8.90;;;3.20;;
12332;SDS011;6232;48.094;11.288;2022-10-29T00:56:36;7.30;;;3.40;;
12332;SDS011;6232;48.094;11.288;2022-10-29T00:59:22;9.70;;;4.20;;
12332;SDS011;6232;48.094;11.288;2022-10-29T01:02:08;8.03;;;3.97;;
12332;SDS011;6232;48.094;11.288;2022-10-29T01:04:54;7.90;;;3.93;;
12332;SDS011;6232;48.094;11.288;2022-10-29T01:07:39;5.47;;;3.03;;
12332;SDS011;6232;48.094;11.288;2022-10-29T01:27:58;8.03;;;4.33;;
12332;SDS011;6232;48.094;11.288;2022-10-29T01:39:27;12.13;;;5.00;;
12332;SDS011;6232;48.094;11.288;2022-10-29T01:42:30;11.30;;;3.90;;
12332;SDS011;6232;48.094;11.288;2022-10-29T01:45:19;5.47;;;3.90;;
12332;SDS011;6232;48.094;11.288;2022-10-29T01:48:08;10.33;;;3.97;;
12332;SDS011;6232;48.094;11.288;2022-10-29T01:50:56;13.80;;;4.30;;
12332;SDS011;6232;48.094;11.288;2022-10-29T01:53:44;7.47;;;4.13;;
12332;SDS011;6232;48.094;11.288;2022-10-29T01:56:30;9.60;;;4.20;;
12332;SDS011;6232;48.094;11.288;2022-10-29T01:59:15;9.80;;;4.07;;
12332;SDS011;6232;48.094;11.288;2022-10-29T02:02:06;9.53;;;4.17;;
12332;SDS011;6232;48.094;11.288;2022-10-29T02:07:48;5.93;;;3.30;;
12332;SDS011;6232;48.094;11.288;2022-10-29T02:10:37;8.10;;;3.20;;
12332;SDS011;6232;48.094;11.288;2022-10-29T02:13:27;6.03;;;3.20;;
12332;SDS011;6232;48.094;11.288;2022-10-29T02:16:14;12.67;;;4.20;;
12332;SDS011;6232;48.094;11.288;2022-10-29T02:19:01;10.53;;;3.33;;
12332;SDS011;6232;48.094;11.288;2022-10-29T02:21:46;6.50;;;3.03;;
12332;SDS011;6232;48.094;11.288;2022-10-29T02:24:34;11.80;;;3.30;;
12332;SDS011;6232;48.094;11.288;2022-10-29T02:27:20;5.67;;;3.33;;
12332;SDS011;6232;48.094;11.288;2022-10-29T02:30:05;7.70;;;3.60;;
12332;SDS011;6232;48.094;11.288;2022-10-29T02:32:51;11.30;;;3.60;;
12332;SDS011;6232;48.094;11.288;2022-10-29T02:35:36;12.00;;;3.07;;
12332;SDS011;6232;48.094;11.288;2022-10-29T02:38:22;8.10;;;3.20;;
12332;SDS011;6232;48.094;11.288;2022-10-29T02:41:08;7.90;;;2.70;;
12332;SDS011;6232;48.094;11.288;2022-10-29T02:43:53;7.70;;;3.00;;
12332;SDS011;6232;48.094;11.288;2022-10-29T02:46:39;9.30;;;3.13;;
12332;SDS011;6232;48.094;11.288;2022-10-29T02:49:25;8.83;;;3.50;;
12332;SDS011;6232;48.094;11.288;2022-10-29T02:52:10;9.33;;;3.00;;
12332;SDS011;6232;48.094;11.288;2022-10-29T02:54:56;7.23;;;2.53;;
12332;SDS011;6232;48.094;11.288;2022-10-29T02:57:42;6.27;;;2.93;;
12332;SDS011;6232;48.094;11.288;2022-10-29T03:00:28;7.20;;;2.80;;
12332;SDS011;6232;48.094;11.288;2022-10-29T03:03:13;4.67;;;3.47;;
12332;SDS011;6232;48.094;11.288;2022-10-29T03:05:59;12.77;;;3.50;;
12332;SDS011;6232;48.094;11.288;2022-10-29T03:08:44;13.93;;;3.60;;
12332;SDS011;6232;48.094;11.288;2022-10-29T03:11:30;7.90;;;2.70;;
12332;SDS011;6232;48.094;11.288;2022-10-29T03:14:16;10.50;;;3.33;;
12332;SDS011;6232;48.094;11.288;2022-10-29T03:17:01;10.90;;;4.90;;
12332;SDS011;6232;48.094;11.288;2022-10-29T03:19:47;5.97;;;3.30;;
12332;SDS011;6232;48.094;11.288;2022-10-29T03:22:32;9.30;;;3.70;;
12332;SDS011;6232;48.094;11.288;2022-10-29T03:25:20;6.80;;;2.80;;
12332;SDS011;6232;48.094;11.288;2022-10-29T03:28:05;18.87;;;3.67;;
12332;SDS011;6232;48.094;11.288;2022-10-29T03:30:51;5.70;;;3.50;;
12332;SDS011;6232;48.094;11.288;2022-10-29T03:33:36;8.90;;;3.83;;
12332;SDS011;6232;48.094;11.288;2022-10-29T03:36:22;9.53;;;3.60;;
12332;SDS011;6232;48.094;11.288;2022-10-29T03:39:08;5.57;;;2.90;;
12332;SDS011;6232;48.094;11.288;2022-10-29T03:41:53;6.00;;;3.00;;
12332;SDS011;6232;48.094;11.288;2022-10-29T03:44:39;4.73;;;3.07;;
12332;SDS011;6232;48.094;11.288;2022-10-29T03:47:25;6.83;;;3.00;;
12332;SDS011;6232;48.094;11.288;2022-10-29T03:50:10;9.10;;;3.10;;
12332;SDS011;6232;48.094;11.288;2022-10-29T03:52:56;10.83;;;5.00;;
12332;SDS011;6232;48.094;11.288;2022-10-29T03:55:41;10.93;;;3.10;;
12332;SDS011;6232;48.094;11.288;2022-10-29T03:58:27;5.93;;;2.53;;
12332;SDS011;6232;48.094;11.288;2022-10-29T04:01:13;7.30;;;3.57;;
12332;SDS011;6232;48.094;11.288;2022-10-29T04:03:58;8.23;;;2.60;;
12332;SDS011;6232;48.094;11.288;2022-10-29T04:06:44;5.27;;;2.63;;
12332;SDS011;6232;48.094;11.288;2022-10-29T04:09:29;11.53;;;2.87;;
12332;SDS011;6232;48.094;11.288;2022-10-29T04:12:15;7.53;;;2.57;;
12332;SDS011;6232;48.094;11.288;2022-10-29T04:15:01;12.10;;;3.00;;
12332;SDS011;6232;48.094;11.288;2022-10-29T04:17:48;9.43;;;2.97;;
12332;SDS011;6232;48.094;11.288;2022-10-29T04:20:34;7.73;;;3.13;;
12332;SDS011;6232;48.094;11.288;2022-10-29T04:23:20;10.37;;;2.93;;
12332;SDS011;6232;48.094;11.288;2022-10-29T04:26:05;7.43;;;3.30;;
12332;SDS011;6232;48.094;11.288;2022-10-29T04:28:51;6.57;;;3.07;;
12332;SDS011;6232;48.094;11.288;2022-10-29T04:31:36;3.13;;;2.30;;
12332;SDS011;6232;48.094;11.288;2022-10-29T04:34:22;3.33;;;3.00;;
12332;SDS011;6232;48.094;11.288;2022-10-29T04:37:07;10.87;;;3.20;;
12332;SDS011;6232;48.094;11.288;2022-10-29T04:39:53;12.50;;;3.40;;
12332;SDS011;6232;48.094;11.288;2022-10-29T04:42:39;4.70;;;2.80;;
12332;SDS011;6232;48.094;11.288;2022-10-29T04:45:24;7.53;;;3.70;;
12332;SDS011;6232;48.094;11.288;2022-10-29T04:48:10;13.60;;;3.30;;
12332;SDS011;6232;48.094;11.288;2022-10-29T04:50:55;5.70;;;3.07;;
12332;SDS011;6232;48.094;11.288;2022-10-29T04:53:41;10.53;;;3.27;;
12332;SDS011;6232;48.094;11.288;2022-10-29T04:56:28;5.30;;;2.57;;
12332;SDS011;6232;48.094;11.288;2022-10-29T04:59:13;14.47;;;3.10;;
12332;SDS011;6232;48.094;11.288;2022-10-29T05:01:59;8.77;;;3.03;;
12332;SDS011;6232;48.094;11.288;2022-10-29T05:04:44;9.77;;;2.73;;
12332;SDS011;6232;48.094;11.288;2022-10-29T05:07:30;18.17;;;3.70;;
12332;SDS011;6232;48.094;11.288;2022-10-29T05:10:15;9.10;;;3.20;;
12332;SDS011;6232;48.094;11.288;2022-10-29T05:13:05;12.03;;;3.27;;
12332;SDS011;6232;48.094;11.288;2022-10-29T05:15:54;6.90;;;3.10;;
12332;SDS011;6232;48.094;11.288;2022-10-29T05:18:39;7.97;;;2.67;;
12332;SDS011;6232;48.094;11.288;2022-10-29T05:21:25;4.07;;;2.47;;
12332;SDS011;6232;48.094;11.288;2022-10-29T05:24:11;10.30;;;2.80;;
12332;SDS011;6232;48.094;11.288;2022-10-29T05:26:56;5.70;;;2.90;;
12332;SDS011;6232;48.094;11.288;2022-10-29T05:29:42;10.20;;;2.73;;
12332;SDS011;6232;48.094;11.288;2022-10-29T05:32:27;7.03;;;2.97;;
12332;SDS011;6232;48.094;11.288;2022-10-29T05:35:13;9.23;;;3.00;;
12332;SDS011;6232;48.094;11.288;2022-10-29T05:37:58;4.37;;;2.90;;
12332;SDS011;6232;48.094;11.288;2022-10-29T05:40:45;10.33;;;3.83;;
12332;SDS011;6232;48.094;11.288;2022-10-29T05:43:30;14.93;;;4.23;;
12332;SDS011;6232;48.094;11.288;2022-10-29T05:46:16;6.20;;;3.40;;
12332;SDS011;6232;48.094;11.288;2022-10-29T05:49:02;6.93;;;3.10;;
12332;SDS011;6232;48.094;11.288;2022-10-29T05:51:48;11.63;;;3.10;;
12332;SDS011;6232;48.094;11.288;2022-10-29T05:54:33;11.23;;;2.97;;
12332;SDS011;6232;48.094;11.288;2022-10-29T05:57:19;7.67;;;3.43;;
12332;SDS011;6232;48.094;11.288;2022-10-29T06:00:05;15.20;;;4.53;;
12332;SDS011;6232;48.094;11.288;2022-10-29T06:02:51;6.90;;;3.20;;
12332;SDS011;6232;48.094;11.288;2022-10-29T06:05:36;12.37;;;3.73;;
12332;SDS011;6232;48.094;11.288;2022-10-29T06:08:22;17.90;;;3.17;;
12332;SDS011;6232;48.094;11.288;2022-10-29T06:11:07;10.40;;;4.30;;
12332;SDS011;6232;48.094;11.288;2022-10-29T06:13:53;15.43;;;4.10;;
12332;SDS011;6232;48.094;11.288;2022-10-29T06:16:39;14.73;;;5.63;;
12332;SDS011;6232;48.094;11.288;2022-10-29T06:19:25;10.10;;;2.90;;
12332;SDS011;6232;48.094;11.288;2022-10-29T06:22:11;11.47;;;2.93;;
12332;SDS011;6232;48.094;11.288;2022-10-29T06:24:56;10.43;;;3.30;;
12332;SDS011;6232;48.094;11.288;2022-10-29T06:27:42;10.03;;;4.37;;
12332;SDS011;6232;48.094;11.288;2022-10-29T06:30:31;5.20;;;3.40;;
12332;SDS011;6232;48.094;11.288;2022-10-29T06:33:17;9.63;;;3.77;;
12332;SDS011;6232;48.094;11.288;2022-10-29T06:36:03;24.20;;;3.50;;
12332;SDS011;6232;48.094;11.288;2022-10-29T06:38:49;7.40;;;2.73;;
12332;SDS011;6232;48.094;11.288;2022-10-29T06:41:34;10.90;;;3.80;;
12332;SDS011;6232;48.094;11.288;2022-10-29T06:44:20;6.20;;;3.13;;
12332;SDS011;6232;48.094;11.288;2022-10-29T06:47:05;7.33;;;3.27;;
12332;SDS011;6232;48.094;11.288;2022-10-29T06:49:51;5.27;;;2.60;;
12332;SDS011;6232;48.094;11.288;2022-10-29T06:52:37;9.07;;;2.90;;
12332;SDS011;6232;48.094;11.288;2022-10-29T06:55:22;12.40;;;3.40;;
12332;SDS011;6232;48.094;11.288;2022-10-29T06:58:12;9.60;;;2.80;;
12332;SDS011;6232;48.094;11.288;2022-10-29T07:00:59;5.60;;;3.00;;
12332;SDS011;6232;48.094;11.288;2022-10-29T07:03:44;5.13;;;2.90;;
12332;SDS011;6232;48.094;11.288;2022-10-29T07:06:30;18.23;;;4.67;;
12332;SDS011;6232;48.094;11.288;2022-10-29T07:09:16;10.53;;;2.70;;
12332;SDS011;6232;48.094;11.288;2022-10-29T07:12:02;8.30;;;3.10;;
12332;SDS011;6232;48.094;11.288;2022-10-29T07:14:47;10.57;;;3.80;;
12332;SDS011;6232;48.094;11.288;2022-10-29T07:17:33;16.03;;;5.37;;
12332;SDS011;6232;48.094;11.288;2022-10-29T07:20:19;13.53;;;4.80;;
12332;SDS011;6232;48.094;11.288;2022-10-29T07:23:04;13.30;;;3.10;;
12332;SDS011;6232;48.094;11.288;2022-10-29T07:25:53;10.90;;;3.53;;
12332;SDS011;6232;48.094;11.288;2022-10-29T07:28:39;11.30;;;3.73;;
12332;SDS011;6232;48.094;11.288;2022-10-29T07:31:24;23.87;;;3.63;;
12332;SDS011;6232;48.094;11.288;2022-10-29T07:34:10;11.30;;;3.60;;
12332;SDS011;6232;48.094;11.288;2022-10-29T07:36:56;6.60;;;3.20;;
12332;SDS011;6232;48.094;11.288;2022-10-29T07:39:41;9.20;;;3.30;;
12332;SDS011;6232;48.094;11.288;2022-10-29T07:42:27;15.67;;;3.30;;
12332;SDS011;6232;48.094;11.288;2022-10-29T07:45:12;11.67;;;2.80;;
12332;SDS011;6232;48.094;11.288;2022-10-29T07:47:58;6.97;;;3.10;;
12332;SDS011;6232;48.094;11.288;2022-10-29T07:50:45;8.40;;;3.37;;
12332;SDS011;6232;48.094;11.288;2022-10-29T07:53:30;10.40;;;3.03;;
12332;SDS011;6232;48.094;11.288;2022-10-29T07:56:17;9.73;;;3.13;;
12332;SDS011;6232;48.094;11.288;2022-10-29T07:59:02;4.73;;;2.67;;
12332;SDS011;6232;48.094;11.288;2022-10-29T08:01:48;8.37;;;2.97;;
12332;SDS011;6232;48.094;11.288;2022-10-29T08:04:33;17.17;;;3.23;;
12332;SDS011;6232;48.094;11.288;2022-10-29T08:07:19;12.57;;;3.40;;
12332;SDS011;6232;48.094;11.288;2022-10-29T08:10:05;8.53;;;2.73;;
12332;SDS011;6232;48.094;11.288;2022-10-29T08:12:51;11.40;;;3.73;;
12332;SDS011;6232;48.094;11.288;2022-10-29T08:15:36;13.23;;;4.00;;
12332;SDS011;6232;48.094;11.288;2022-10-29T08:18:22;6.80;;;3.70;;
12332;SDS011;6232;48.094;11.288;2022-10-29T08:21:08;12.77;;;3.70;;
12332;SDS011;6232;48.094;11.288;2022-10-29T08:23:53;14.97;;;3.70;;
12332;SDS011;6232;48.094;11.288;2022-10-29T08:26:39;9.80;;;3.10;;
12332;SDS011;6232;48.094;11.288;2022-10-29T08:29:25;7.20;;;3.00;;
12332;SDS011;6232;48.094;11.288;2022-10-29T08:32:11;14.83;;;3.20;;
12332;SDS011;6232;48.094;11.288;2022-10-29T08:34:56;12.93;;;3.70;;
12332;SDS011;6232;48.094;11.288;2022-10-29T08:37:43;7.00;;;3.27;;
12332;SDS011;6232;48.094;11.288;2022-10-29T08:46:20;7.13;;;3.30;;
12332;SDS011;6232;48.094;11.288;2022-10-29T08:49:09;8.67;;;2.93;;
12332;SDS011;6232;48.094;11.288;2022-10-29T08:52:00;10.83;;;2.60;;
12332;SDS011;6232;48.094;11.288;2022-10-29T08:54:48;9.50;;;3.10;;
12332;SDS011;6232;48.094;11.288;2022-10-29T08:57:37;9.40;;;2.43;;
12332;SDS011;6232;48.094;11.288;2022-10-29T09:00:30;10.40;;;3.00;;
12332;SDS011;6232;48.094;11.288;2022-10-29T09:03:16;10.57;;;3.47;;
12332;SDS011;6232;48.094;11.288;2022-10-29T09:06:20;12.90;;;3.30;;
12332;SDS011;6232;48.094;11.288;2022-10-29T09:14:44;11.17;;;3.40;;
12332;SDS011;6232;48.094;11.288;2022-10-29T09:17:43;24.93;;;4.30;;
12332;SDS011;6232;48.094;11.288;2022-10-29T09:26:30;23.47;;;3.53;;
12332;SDS011;6232;48.094;11.288;2022-10-29T09:29:28;10.60;;;3.27;;
12332;SDS011;6232;48.094;11.288;2022-10-29T09:32:34;19.00;;;3.97;;
12332;SDS011;6232;48.094;11.288;2022-10-29T09:35:22;7.90;;;2.80;;
12332;SDS011;6232;48.094;11.288;2022-10-29T09:38:17;9.80;;;3.07;;
12332;SDS011;6232;48.094;11.288;2022-10-29T09:41:03;9.40;;;2.63;;
12332;SDS011;6232;48.094;11.288;2022-10-29T09:43:52;9.73;;;3.03;;
12332;SDS011;6232;48.094;11.288;2022-10-29T09:52:38;11.53;;;3.50;;
12332;SDS011;6232;48.094;11.288;2022-10-29T09:55:25;10.00;;;2.80;;
12332;SDS011;6232;48.094;11.288;2022-10-29T09:58:16;11.50;;;3.30;;
12332;SDS011;6232;48.094;11.288;2022-10-29T10:01:02;11.83;;;2.83;;
12332;SDS011;6232;48.094;11.288;2022-10-29T10:03:52;5.60;;;2.80;;
12332;SDS011;6232;48.094;11.288;2022-10-29T10:15:22;7.90;;;2.70;;
12332;SDS011;6232;48.094;11.288;2022-10-29T10:23:47;8.77;;;2.50;;
12332;SDS011;6232;48.094;11.288;2022-10-29T10:26:35;14.20;;;2.80;;
12332;SDS011;6232;48.094;11.288;2022-10-29T10:29:24;8.60;;;2.73;;
12332;SDS011;6232;48.094;11.288;2022-10-29T10:32:12;9.80;;;2.30;;
12332;SDS011;6232;48.094;11.288;2022-10-29T10:34:59;15.67;;;2.97;;
12332;SDS011;6232;48.094;11.288;2022-10-29T10:37:44;10.43;;;3.60;;
12332;SDS011;6232;48.094;11.288;2022-10-29T10:40:30;7.67;;;2.50;;
12332;SDS011;6232;48.094;11.288;2022-10-29T10:43:17;6.23;;;2.43;;
12332;SDS011;6232;48.094;11.288;2022-10-29T10:46:04;9.20;;;2.37;;
12332;SDS011;6232;48.094;11.288;2022-10-29T10:48:58;10.60;;;2.37;;
12332;SDS011;6232;48.094;11.288;2022-10-29T10:51:45;9.60;;;2.87;;
12332;SDS011;6232;48.094;11.288;2022-10-29T10:57:24;15.50;;;3.23;;
12332;SDS011;6232;48.094;11.288;2022-10-29T11:03:19;7.50;;;2.60;;
12332;SDS011;6232;48.094;11.288;2022-10-29T11:08:56;14.83;;;3.93;;
12332;SDS011;6232;48.094;11.288;2022-10-29T11:11:46;6.30;;;2.60;;
12332;SDS011;6232;48.094;11.288;2022-10-29T11:14:34;7.27;;;3.10;;
12332;SDS011;6232;48.094;11.288;2022-10-29T11:17:26;6.57;;;2.90;;
12332;SDS011;6232;48.094;11.288;2022-10-29T11:20:15;10.53;;;2.90;;
12332;SDS011;6232;48.094;11.288;2022-10-29T11:25:55;7.50;;;2.50;;
12332;SDS011;6232;48.094;11.288;2022-10-29T11:28:59;7.47;;;3.10;;
12332;SDS011;6232;48.094;11.288;2022-10-29T11:34:52;5.97;;;2.67;;
12332;SDS011;6232;48.094;11.288;2022-10-29T11:38:01;16.20;;;2.50;;
12332;SDS011;6232;48.094;11.288;2022-10-29T11:40:59;11.15;;;3.28;;
12332;SDS011;6232;48.094;11.288;2022-10-29T11:43:49;10.75;;;3.00;;
12332;SDS011;6232;48.094;11.288;2022-10-29T11:46:51;7.95;;;2.38;;
12332;SDS011;6232;48.094;11.288;2022-10-29T11:52:40;12.18;;;2.50;;
12332;SDS011;6232;48.094;11.288;2022-10-29T11:55:32;10.07;;;2.85;;
12332;SDS011;6232;48.094;11.288;2022-10-29T11:58:22;5.55;;;1.80;;
12332;SDS011;6232;48.094;11.288;2022-10-29T12:01:44;11.93;;;2.92;;
12332;SDS011;6232;48.094;11.288;2022-10-29T12:04:23;7.35;;;2.78;;
12332;SDS011;6232;48.094;11.288;2022-10-29T12:12:57;9.80;;;2.20;;
12332;SDS011;6232;48.094;11.288;2022-10-29T12:15:46;6.88;;;2.75;;
12332;SDS011;6232;48.094;11.288;2022-10-29T12:19:00;9.13;;;2.85;;
12332;SDS011;6232;48.094;11.288;2022-10-29T12:27:51;13.07;;;2.70;;
12332;SDS011;6232;48.094;11.288;2022-10-29T12:30:43;9.93;;;2.45;;
12332;SDS011;6232;48.094;11.288;2022-10-29T12:33:33;13.20;;;2.58;;
12332;SDS011;6232;48.094;11.288;2022-10-29T12:39:10;9.68;;;2.72;;
12332;SDS011;6232;48.094;11.288;2022-10-29T12:42:00;7.60;;;2.67;;
12332;SDS011;6232;48.094;11.288;2022-10-29T12:50:31;10.20;;;2.88;;
12332;SDS011;6232;48.094;11.288;2022-10-29T12:56:32;11.55;;;2.63;;
12332;SDS011;6232;48.094;11.288;2022-10-29T12:59:29;7.35;;;2.85;;
12332;SDS011;6232;48.094;11.288;2022-10-29T13:10:47;10.25;;;2.70;;
12332;SDS011;6232;48.094;11.288;2022-10-29T13:13:37;6.57;;;2.72;;
12332;SDS011;6232;48.094;11.288;2022-10-29T13:16:24;8.40;;;3.15;;
12332;SDS011;6232;48.094;11.288;2022-10-29T13:19:15;11.52;;;2.78;;
12332;SDS011;6232;48.094;11.288;2022-10-29T13:22:03;12.93;;;2.65;;
12332;SDS011;6232;48.094;11.288;2022-10-29T13:27:54;6.22;;;3.22;;
12332;SDS011;6232;48.094;11.288;2022-10-29T13:30:41;7.47;;;3.30;;
12332;SDS011;6232;48.094;11.288;2022-10-29T13:39:01;12.27;;;3.17;;
12332;SDS011;6232;48.094;11.288;2022-10-29T13:41:49;14.43;;;3.10;;
12332;SDS011;6232;48.094;11.288;2022-10-29T13:44:37;8.97;;;3.27;;
12332;SDS011;6232;48.094;11.288;2022-10-29T13:47:23;11.10;;;2.63;;
12332;SDS011;6232;48.094;11.288;2022-10-29T13:50:09;7.90;;;2.63;;
12332;SDS011;6232;48.094;11.288;2022-10-29T13:52:56;9.20;;;2.33;;
12332;SDS011;6232;48.094;11.288;2022-10-29T13:55:43;19.03;;;2.90;;
12332;SDS011;6232;48.094;11.288;2022-10-29T13:58:31;10.40;;;3.23;;
12332;SDS011;6232;48.094;11.288;2022-10-29T14:01:18;12.97;;;4.03;;
12332;SDS011;6232;48.094;11.288;2022-10-29T14:04:15;11.70;;;5.50;;
12332;SDS011;6232;48.094;11.288;2022-10-29T14:07:04;10.60;;;5.40;;
12332;SDS011;6232;48.094;11.288;2022-10-29T14:09:57;13.00;;;7.70;;
12332;SDS011;6232;48.094;11.288;2022-10-29T14:12:46;13.30;;;7.73;;
12332;SDS011;6232;48.094;11.288;2022-10-29T14:15:33;15.13;;;7.27;;
12332;SDS011;6232;48.094;11.288;2022-10-29T14:18:23;9.47;;;4.40;;
12332;SDS011;6232;48.094;11.288;2022-10-29T14:24:01;8.20;;;3.70;;
12332;SDS011;6232;48.094;11.288;2022-10-29T14:26:47;16.10;;;3.60;;
12332;SDS011;6232;48.094;11.288;2022-10-29T14:29:33;8.70;;;3.60;;
12332;SDS011;6232;48.094;11.288;2022-10-29T14:32:19;10.90;;;3.97;;
12332;SDS011;6232;48.094;11.288;2022-10-29T14:35:05;14.30;;;3.80;;
12332;SDS011;6232;48.094;11.288;2022-10-29T14:37:50;19.80;;;3.80;;
12332;SDS011;6232;48.094;11.288;2022-10-29T14:40:36;10.50;;;3.23;;
12332;SDS011;6232;48.094;11.288;2022-10-29T14:43:23;9.87;;;3.03;;
12332;SDS011;6232;48.094;11.288;2022-10-29T14:46:24;9.70;;;3.60;;
12332;SDS011;6232;48.094;11.288;2022-10-29T14:52:03;12.60;;;4.07;;
12332;SDS011;6232;48.094;11.288;2022-10-29T14:54:50;10.30;;;3.50;;
12332;SDS011;6232;48.094;11.288;2022-10-29T14:57:38;7.68;;;3.42;;
12332;SDS011;6232;48.094;11.288;2022-10-29T15:00:25;13.43;;;3.80;;
12332;SDS011;6232;48.094;11.288;2022-10-29T15:03:13;6.67;;;3.40;;
12332;SDS011;6232;48.094;11.288;2022-10-29T15:06:09;12.30;;;3.37;;
12332;SDS011;6232;48.094;11.288;2022-10-29T15:08:56;12.43;;;3.43;;
12332;SDS011;6232;48.094;11.288;2022-10-29T15:12:05;6.03;;;2.97;;
12332;SDS011;6232;48.094;11.288;2022-10-29T15:14:52;28.20;;;4.00;;
12332;SDS011;6232;48.094;11.288;2022-10-29T15:20:43;4.50;;;2.73;;
12332;SDS011;6232;48.094;11.288;2022-10-29T15:23:35;13.77;;;3.63;;
12332;SDS011;6232;48.094;11.288;2022-10-29T15:26:25;13.40;;;3.07;;
12332;SDS011;6232;48.094;11.288;2022-10-29T15:29:11;13.73;;;3.60;;
12332;SDS011;6232;48.094;11.288;2022-10-29T15:31:57;16.37;;;3.70;;
12332;SDS011;6232;48.094;11.288;2022-10-29T15:34:47;7.73;;;3.30;;
12332;SDS011;6232;48.094;11.288;2022-10-29T15:37:40;6.60;;;3.17;;
12332;SDS011;6232;48.094;11.288;2022-10-29T15:40:27;15.33;;;3.53;;
12332;SDS011;6232;48.094;11.288;2022-10-29T15:43:26;13.23;;;4.20;;
12332;SDS011;6232;48.094;11.288;2022-10-29T15:46:26;10.80;;;3.73;;
12332;SDS011;6232;48.094;11.288;2022-10-29T15:49:15;18.90;;;4.30;;
12332;SDS011;6232;48.094;11.288;2022-10-29T15:52:01;13.53;;;4.50;;
12332;SDS011;6232;48.094;11.288;2022-10-29T15:54:47;18.27;;;3.70;;
12332;SDS011;6232;48.094;11.288;2022-10-29T15:57:33;13.20;;;5.43;;
12332;SDS011;6232;48.094;11.288;2022-10-29T16:00:20;16.87;;;5.67;;
12332;SDS011;6232;48.094;11.288;2022-10-29T16:05:59;14.63;;;5.00;;
12332;SDS011;6232;48.094;11.288;2022-10-29T16:08:46;29.60;;;13.57;;
12332;SDS011;6232;48.094;11.288;2022-10-29T16:11:34;32.73;;;16.00;;
12332;SDS011;6232;48.094;11.288;2022-10-29T16:14:19;37.07;;;18.03;;
12332;SDS011;6232;48.094;11.288;2022-10-29T16:20:29;18.77;;;7.27;;
12332;SDS011;6232;48.094;11.288;2022-10-29T16:23:15;18.33;;;6.50;;
12332;SDS011;6232;48.094;11.288;2022-10-29T16:26:01;13.80;;;4.73;;
12332;SDS011;6232;48.094;11.288;2022-10-29T16:28:53;15.10;;;4.70;;
12332;SDS011;6232;48.094;11.288;2022-10-29T16:31:38;17.83;;;4.13;;
12332;SDS011;6232;48.094;11.288;2022-10-29T16:40:24;16.50;;;4.77;;
12332;SDS011;6232;48.094;11.288;2022-10-29T16:43:10;9.27;;;3.20;;
12332;SDS011;6232;48.094;11.288;2022-10-29T16:45:59;18.23;;;4.50;;
12332;SDS011;6232;48.094;11.288;2022-10-29T16:55:50;12.40;;;5.90;;
12332;SDS011;6232;48.094;11.288;2022-10-29T16:58:35;19.80;;;4.33;;
12332;SDS011;6232;48.094;11.288;2022-10-29T17:01:21;11.27;;;4.30;;
12332;SDS011;6232;48.094;11.288;2022-10-29T17:04:07;13.27;;;4.23;;
12332;SDS011;6232;48.094;11.288;2022-10-29T17:07:16;9.50;;;4.10;;
12332;SDS011;6232;48.094;11.288;2022-10-29T17:10:24;12.30;;;3.33;;
12332;SDS011;6232;48.094;11.288;2022-10-29T17:13:25;12.97;;;4.13;;
12332;SDS011;6232;48.094;11.288;2022-10-29T17:16:11;9.00;;;3.80;;
12332;SDS011;6232;48.094;11.288;2022-10-29T17:18:58;13.30;;;4.20;;
12332;SDS011;6232;48.094;11.288;2022-10-29T17:21:50;10.47;;;4.40;;
12332;SDS011;6232;48.094;11.288;2022-10-29T17:24:49;10.93;;;3.77;;
12332;SDS011;6232;48.094;11.288;2022-10-29T17:27:38;11.43;;;5.27;;
12332;SDS011;6232;48.094;11.288;2022-10-29T17:30:24;9.20;;;4.37;;
12332;SDS011;6232;48.094;11.288;2022-10-29T17:33:09;14.50;;;5.20;;
12332;SDS011;6232;48.094;11.288;2022-10-29T17:36:01;15.40;;;4.50;;
12332;SDS011;6232;48.094;11.288;2022-10-29T17:38:46;11.23;;;5.30;;
12332;SDS011;6232;48.094;11.288;2022-10-29T17:41:32;15.00;;;6.67;;
12332;SDS011;6232;48.094;11.288;2022-10-29T17:44:18;13.37;;;5.00;;
12332;SDS011;6232;48.094;11.288;2022-10-29T17:47:04;17.37;;;5.47;;
12332;SDS011;6232;48.094;11.288;2022-10-29T17:49:49;16.60;;;4.60;;
12332;SDS011;6232;48.094;11.288;2022-10-29T17:52:35;16.77;;;4.77;;
12332;SDS011;6232;48.094;11.288;2022-10-29T17:55:20;10.20;;;3.60;;
12332;SDS011;6232;48.094;11.288;2022-10-29T17:58:06;10.07;;;4.13;;
12332;SDS011;6232;48.094;11.288;2022-10-29T18:00:52;11.97;;;4.40;;
12332;SDS011;6232;48.094;11.288;2022-10-29T18:03:37;12.67;;;3.47;;
12332;SDS011;6232;48.094;11.288;2022-10-29T18:06:23;9.93;;;3.70;;
12332;SDS011;6232;48.094;11.288;2022-10-29T18:09:08;5.37;;;3.43;;
12332;SDS011;6232;48.094;11.288;2022-10-29T18:11:54;7.47;;;3.90;;
12332;SDS011;6232;48.094;11.288;2022-10-29T18:14:39;11.67;;;4.43;;
12332;SDS011;6232;48.094;11.288;2022-10-29T18:17:25;7.83;;;4.00;;
12332;SDS011;6232;48.094;11.288;2022-10-29T18:20:10;12.00;;;4.10;;
12332;SDS011;6232;48.094;11.288;2022-10-29T18:22:56;9.30;;;4.63;;
12332;SDS011;6232;48.094;11.288;2022-10-29T18:25:42;17.97;;;3.80;;
12332;SDS011;6232;48.094;11.288;2022-10-29T18:28:27;5.60;;;3.80;;
12332;SDS011;6232;48.094;11.288;2022-10-29T18:31:13;9.97;;;4.00;;
12332;SDS011;6232;48.094;11.288;2022-10-29T18:33:59;17.83;;;6.63;;
12332;SDS011;6232;48.094;11.288;2022-10-29T18:36:46;7.33;;;3.20;;
12332;SDS011;6232;48.094;11.288;2022-10-29T18:39:31;12.93;;;4.67;;
12332;SDS011;6232;48.094;11.288;2022-10-29T18:42:17;11.27;;;3.87;;
12332;SDS011;6232;48.094;11.288;2022-10-29T18:45:03;17.27;;;4.60;;
12332;SDS011;6232;48.094;11.288;2022-10-29T18:47:48;6.77;;;3.40;;
12332;SDS011;6232;48.094;11.288;2022-10-29T18:50:34;7.37;;;3.60;;
12332;SDS011;6232;48.094;11.288;2022-10-29T18:53:20;18.03;;;5.30;;
12332;SDS011;6232;48.094;11.288;2022-10-29T18:56:10;14.90;;;4.60;;
12332;SDS011;6232;48.094;11.288;2022-10-29T18:58:56;11.27;;;4.00;;
12332;SDS011;6232;48.094;11.288;2022-10-29T19:01:42;10.57;;;3.90;;
12332;SDS011;6232;48.094;11.288;2022-10-29T19:04:27;10.97;;;3.80;;
12332;SDS011;6232;48.094;11.288;2022-10-29T19:07:13;6.47;;;3.93;;
12332;SDS011;6232;48.094;11.288;2022-10-29T19:09:58;7.07;;;3.47;;
12332;SDS011;6232;48.094;11.288;2022-10-29T19:12:44;11.17;;;4.17;;
12332;SDS011;6232;48.094;11.288;2022-10-29T19:15:33;5.80;;;3.50;;